sensor_id;sensor_type;location;lat;lon;timestamp;P1;durP1;ratioP1;P2;durP2;ratioP2
57889;SDS011;43707;50.184;18.966;2023-06-22T00:02:13;0.20;;;0.20;;
57889;SDS011;43707;50.184;18.966;2023-06-22T00:04:38;0.40;;;0.40;;
57889;SDS011;43707;50.184;18.966;2023-06-22T00:07:03;0.20;;;0.20;;
57889;SDS011;43707;50.184;18.966;2023-06-22T00:09:30;0.30;;;0.30;;
57889;SDS011;43707;50.184;18.966;2023-06-22T00:11:56;0.30;;;0.30;;
57889;SDS011;43707;50.184;18.966;2023-06-22T00:14:21;0.30;;;0.30;;
57889;SDS011;43707;50.184;18.966;2023-06-22T00:16:47;0.30;;;0.30;;
57889;SDS011;43707;50.184;18.966;2023-06-22T00:19:15;0.30;;;0.30;;
57889;SDS011;43707;50.184;18.966;2023-06-22T00:21:41;0.30;;;0.30;;
57889;SDS011;43707;50.184;18.966;2023-06-22T00:24:08;0.30;;;0.30;;
57889;SDS011;43707;50.184;18.966;2023-06-22T00:26:33;0.30;;;0.30;;
57889;SDS011;43707;50.184;18.966;2023-06-22T00:28:59;0.30;;;0.30;;
57889;SDS011;43707;50.184;18.966;2023-06-22T00:31:24;0.30;;;0.30;;
57889;SDS011;43707;50.184;18.966;2023-06-22T00:33:50;0.20;;;0.20;;
57889;SDS011;43707;50.184;18.966;2023-06-22T00:36:15;0.50;;;0.30;;
57889;SDS011;43707;50.184;18.966;2023-06-22T00:38:42;0.30;;;0.30;;
57889;SDS011;43707;50.184;18.966;2023-06-22T00:41:08;0.40;;;0.30;;
57889;SDS011;43707;50.184;18.966;2023-06-22T00:43:34;0.40;;;0.30;;
57889;SDS011;43707;50.184;18.966;2023-06-22T00:45:59;0.20;;;0.20;;
57889;SDS011;43707;50.184;18.966;2023-06-22T00:48:25;0.30;;;0.30;;
57889;SDS011;43707;50.184;18.966;2023-06-22T00:50:51;0.30;;;0.30;;
57889;SDS011;43707;50.184;18.966;2023-06-22T00:53:18;0.40;;;0.20;;
57889;SDS011;43707;50.184;18.966;2023-06-22T00:55:44;0.30;;;0.30;;
57889;SDS011;43707;50.184;18.966;2023-06-22T00:58:16;0.20;;;0.20;;
57889;SDS011;43707;50.184;18.966;2023-06-22T01:00:42;0.40;;;0.40;;
57889;SDS011;43707;50.184;18.966;2023-06-22T01:03:08;0.30;;;0.30;;
57889;SDS011;43707;50.184;18.966;2023-06-22T01:05:34;0.60;;;0.30;;
57889;SDS011;43707;50.184;18.966;2023-06-22T01:10:32;0.30;;;0.30;;
57889;SDS011;43707;50.184;18.966;2023-06-22T01:13:01;0.20;;;0.20;;
57889;SDS011;43707;50.184;18.966;2023-06-22T01:15:28;0.30;;;0.30;;
57889;SDS011;43707;50.184;18.966;2023-06-22T01:17:58;0.20;;;0.20;;
57889;SDS011;43707;50.184;18.966;2023-06-22T01:20:25;0.20;;;0.20;;
57889;SDS011;43707;50.184;18.966;2023-06-22T01:31:12;0.20;;;0.20;;
57889;SDS011;43707;50.184;18.966;2023-06-22T01:33:41;0.70;;;0.20;;
57889;SDS011;43707;50.184;18.966;2023-06-22T01:36:07;0.30;;;0.30;;
57889;SDS011;43707;50.184;18.966;2023-06-22T01:38:33;0.20;;;0.20;;
57889;SDS011;43707;50.184;18.966;2023-06-22T01:41:00;0.20;;;0.20;;
57889;SDS011;43707;50.184;18.966;2023-06-22T01:43:27;0.70;;;0.30;;
57889;SDS011;43707;50.184;18.966;2023-06-22T01:45:56;0.50;;;0.50;;
57889;SDS011;43707;50.184;18.966;2023-06-22T01:48:23;0.30;;;0.20;;
57889;SDS011;43707;50.184;18.966;2023-06-22T01:50:51;0.50;;;0.30;;
57889;SDS011;43707;50.184;18.966;2023-06-22T01:53:18;8.30;;;0.40;;
57889;SDS011;43707;50.184;18.966;2023-06-22T01:55:44;2.50;;;0.40;;
57889;SDS011;43707;50.184;18.966;2023-06-22T01:58:09;2.90;;;0.30;;
57889;SDS011;43707;50.184;18.966;2023-06-22T02:00:37;3.50;;;0.30;;
57889;SDS011;43707;50.184;18.966;2023-06-22T02:03:05;0.90;;;0.40;;
57889;SDS011;43707;50.184;18.966;2023-06-22T02:05:39;1.90;;;0.40;;
57889;SDS011;43707;50.184;18.966;2023-06-22T02:08:17;1.00;;;0.40;;
57889;SDS011;43707;50.184;18.966;2023-06-22T02:10:46;2.00;;;0.30;;
57889;SDS011;43707;50.184;18.966;2023-06-22T02:13:12;0.30;;;0.20;;
57889;SDS011;43707;50.184;18.966;2023-06-22T02:15:38;1.90;;;0.20;;
57889;SDS011;43707;50.184;18.966;2023-06-22T02:18:03;0.80;;;0.30;;
57889;SDS011;43707;50.184;18.966;2023-06-22T02:20:30;0.20;;;0.20;;
57889;SDS011;43707;50.184;18.966;2023-06-22T02:22:55;0.20;;;0.20;;
57889;SDS011;43707;50.184;18.966;2023-06-22T02:25:21;0.30;;;0.30;;
57889;SDS011;43707;50.184;18.966;2023-06-22T02:27:46;0.70;;;0.30;;
57889;SDS011;43707;50.184;18.966;2023-06-22T02:30:12;0.20;;;0.20;;
57889;SDS011;43707;50.184;18.966;2023-06-22T02:32:40;0.10;;;0.10;;
57889;SDS011;43707;50.184;18.966;2023-06-22T02:35:06;0.10;;;0.10;;
57889;SDS011;43707;50.184;18.966;2023-06-22T02:37:33;0.10;;;0.10;;
57889;SDS011;43707;50.184;18.966;2023-06-22T02:40:01;0.20;;;0.20;;
57889;SDS011;43707;50.184;18.966;2023-06-22T02:42:27;0.10;;;0.10;;
57889;SDS011;43707;50.184;18.966;2023-06-22T02:44:52;0.50;;;0.30;;
57889;SDS011;43707;50.184;18.966;2023-06-22T02:47:19;0.30;;;0.20;;
57889;SDS011;43707;50.184;18.966;2023-06-22T02:49:44;0.20;;;0.20;;
57889;SDS011;43707;50.184;18.966;2023-06-22T02:52:11;0.30;;;0.30;;
57889;SDS011;43707;50.184;18.966;2023-06-22T02:54:36;0.40;;;0.30;;
57889;SDS011;43707;50.184;18.966;2023-06-22T02:57:01;0.40;;;0.30;;
57889;SDS011;43707;50.184;18.966;2023-06-22T02:59:28;0.50;;;0.40;;
57889;SDS011;43707;50.184;18.966;2023-06-22T03:01:53;0.20;;;0.20;;
57889;SDS011;43707;50.184;18.966;2023-06-22T03:04:19;0.60;;;0.20;;
57889;SDS011;43707;50.184;18.966;2023-06-22T03:06:44;0.30;;;0.30;;
57889;SDS011;43707;50.184;18.966;2023-06-22T03:09:16;0.50;;;0.30;;
57889;SDS011;43707;50.184;18.966;2023-06-22T03:11:42;0.30;;;0.30;;
57889;SDS011;43707;50.184;18.966;2023-06-22T03:14:07;0.20;;;0.20;;
57889;SDS011;43707;50.184;18.966;2023-06-22T03:16:32;0.70;;;0.70;;
57889;SDS011;43707;50.184;18.966;2023-06-22T03:18:58;1.20;;;0.30;;
57889;SDS011;43707;50.184;18.966;2023-06-22T03:21:26;3.40;;;1.50;;
57889;SDS011;43707;50.184;18.966;2023-06-22T03:23:53;3.00;;;2.20;;
57889;SDS011;43707;50.184;18.966;2023-06-22T03:26:18;7.80;;;4.60;;
57889;SDS011;43707;50.184;18.966;2023-06-22T03:28:44;10.70;;;5.80;;
57889;SDS011;43707;50.184;18.966;2023-06-22T03:31:09;10.70;;;5.40;;
57889;SDS011;43707;50.184;18.966;2023-06-22T03:33:35;10.20;;;5.50;;
57889;SDS011;43707;50.184;18.966;2023-06-22T03:36:00;6.50;;;5.00;;
57889;SDS011;43707;50.184;18.966;2023-06-22T03:38:26;12.50;;;5.00;;
57889;SDS011;43707;50.184;18.966;2023-06-22T03:40:51;9.80;;;5.20;;
57889;SDS011;43707;50.184;18.966;2023-06-22T03:43:17;11.80;;;4.80;;
57889;SDS011;43707;50.184;18.966;2023-06-22T03:45:42;9.10;;;5.60;;
57889;SDS011;43707;50.184;18.966;2023-06-22T03:48:10;8.10;;;4.70;;
57889;SDS011;43707;50.184;18.966;2023-06-22T03:50:36;10.00;;;5.50;;
57889;SDS011;43707;50.184;18.966;2023-06-22T03:53:01;8.80;;;5.50;;
57889;SDS011;43707;50.184;18.966;2023-06-22T03:55:27;8.60;;;4.60;;
57889;SDS011;43707;50.184;18.966;2023-06-22T03:57:53;10.30;;;5.10;;
57889;SDS011;43707;50.184;18.966;2023-06-22T04:00:22;10.60;;;5.30;;
57889;SDS011;43707;50.184;18.966;2023-06-22T04:02:48;12.40;;;4.80;;
57889;SDS011;43707;50.184;18.966;2023-06-22T04:05:13;13.20;;;6.00;;
57889;SDS011;43707;50.184;18.966;2023-06-22T04:07:39;10.60;;;5.70;;
57889;SDS011;43707;50.184;18.966;2023-06-22T04:10:04;12.20;;;5.90;;
57889;SDS011;43707;50.184;18.966;2023-06-22T04:12:30;10.30;;;5.10;;
57889;SDS011;43707;50.184;18.966;2023-06-22T04:14:56;8.30;;;4.80;;
57889;SDS011;43707;50.184;18.966;2023-06-22T04:17:21;7.20;;;4.50;;
57889;SDS011;43707;50.184;18.966;2023-06-22T04:19:49;7.30;;;5.30;;
57889;SDS011;43707;50.184;18.966;2023-06-22T04:22:15;8.80;;;5.50;;
57889;SDS011;43707;50.184;18.966;2023-06-22T04:24:41;9.90;;;5.60;;
57889;SDS011;43707;50.184;18.966;2023-06-22T04:27:06;11.30;;;5.50;;
57889;SDS011;43707;50.184;18.966;2023-06-22T04:29:32;6.60;;;5.00;;
57889;SDS011;43707;50.184;18.966;2023-06-22T04:31:57;12.80;;;5.40;;
57889;SDS011;43707;50.184;18.966;2023-06-22T04:34:24;7.00;;;5.30;;
57889;SDS011;43707;50.184;18.966;2023-06-22T04:36:53;9.20;;;5.20;;
57889;SDS011;43707;50.184;18.966;2023-06-22T04:39:18;8.80;;;5.60;;
57889;SDS011;43707;50.184;18.966;2023-06-22T04:41:44;7.90;;;5.70;;
57889;SDS011;43707;50.184;18.966;2023-06-22T04:44:13;6.20;;;5.60;;
57889;SDS011;43707;50.184;18.966;2023-06-22T04:46:49;10.50;;;6.00;;
57889;SDS011;43707;50.184;18.966;2023-06-22T04:49:36;12.10;;;7.60;;
57889;SDS011;43707;50.184;18.966;2023-06-22T04:52:03;9.40;;;6.70;;
57889;SDS011;43707;50.184;18.966;2023-06-22T04:54:30;10.60;;;6.50;;
57889;SDS011;43707;50.184;18.966;2023-06-22T04:56:59;10.70;;;8.00;;
57889;SDS011;43707;50.184;18.966;2023-06-22T04:59:26;9.90;;;6.50;;
57889;SDS011;43707;50.184;18.966;2023-06-22T05:01:56;13.70;;;8.60;;
57889;SDS011;43707;50.184;18.966;2023-06-22T05:04:23;10.70;;;8.90;;
57889;SDS011;43707;50.184;18.966;2023-06-22T05:06:49;9.40;;;7.00;;
57889;SDS011;43707;50.184;18.966;2023-06-22T05:09:18;12.60;;;8.40;;
57889;SDS011;43707;50.184;18.966;2023-06-22T05:11:44;13.40;;;8.60;;
57889;SDS011;43707;50.184;18.966;2023-06-22T05:14:10;9.30;;;6.90;;
57889;SDS011;43707;50.184;18.966;2023-06-22T05:16:36;14.60;;;9.70;;
57889;SDS011;43707;50.184;18.966;2023-06-22T05:19:02;8.50;;;6.80;;
57889;SDS011;43707;50.184;18.966;2023-06-22T05:21:29;8.70;;;7.80;;
57889;SDS011;43707;50.184;18.966;2023-06-22T05:23:55;14.50;;;6.90;;
57889;SDS011;43707;50.184;18.966;2023-06-22T05:26:25;7.80;;;6.70;;
57889;SDS011;43707;50.184;18.966;2023-06-22T05:28:51;12.10;;;8.60;;
57889;SDS011;43707;50.184;18.966;2023-06-22T05:31:16;7.90;;;7.10;;
57889;SDS011;43707;50.184;18.966;2023-06-22T05:33:45;8.10;;;6.40;;
57889;SDS011;43707;50.184;18.966;2023-06-22T05:36:11;14.30;;;9.00;;
57889;SDS011;43707;50.184;18.966;2023-06-22T05:38:37;14.60;;;8.50;;
57889;SDS011;43707;50.184;18.966;2023-06-22T05:41:03;9.80;;;7.90;;
57889;SDS011;43707;50.184;18.966;2023-06-22T05:43:29;7.30;;;6.60;;
57889;SDS011;43707;50.184;18.966;2023-06-22T05:45:55;7.90;;;5.90;;
57889;SDS011;43707;50.184;18.966;2023-06-22T05:48:20;9.20;;;7.30;;
57889;SDS011;43707;50.184;18.966;2023-06-22T05:50:45;11.60;;;8.40;;
57889;SDS011;43707;50.184;18.966;2023-06-22T05:53:11;8.70;;;6.30;;
57889;SDS011;43707;50.184;18.966;2023-06-22T05:55:36;5.90;;;4.40;;
57889;SDS011;43707;50.184;18.966;2023-06-22T05:58:02;7.30;;;5.60;;
57889;SDS011;43707;50.184;18.966;2023-06-22T06:00:28;10.90;;;6.50;;
57889;SDS011;43707;50.184;18.966;2023-06-22T06:02:54;7.70;;;6.60;;
57889;SDS011;43707;50.184;18.966;2023-06-22T06:05:20;10.70;;;7.90;;
57889;SDS011;43707;50.184;18.966;2023-06-22T06:07:45;6.80;;;4.40;;
57889;SDS011;43707;50.184;18.966;2023-06-22T06:10:11;4.30;;;3.90;;
57889;SDS011;43707;50.184;18.966;2023-06-22T06:12:36;4.40;;;3.10;;
57889;SDS011;43707;50.184;18.966;2023-06-22T06:15:02;4.30;;;2.70;;
57889;SDS011;43707;50.184;18.966;2023-06-22T06:17:28;5.70;;;5.10;;
57889;SDS011;43707;50.184;18.966;2023-06-22T06:19:54;8.40;;;5.90;;
57889;SDS011;43707;50.184;18.966;2023-06-22T06:22:19;3.20;;;2.90;;
57889;SDS011;43707;50.184;18.966;2023-06-22T06:24:46;3.80;;;3.50;;
57889;SDS011;43707;50.184;18.966;2023-06-22T06:27:13;3.70;;;3.40;;
57889;SDS011;43707;50.184;18.966;2023-06-22T06:29:38;3.20;;;2.90;;
57889;SDS011;43707;50.184;18.966;2023-06-22T06:32:04;4.00;;;3.60;;
57889;SDS011;43707;50.184;18.966;2023-06-22T06:34:29;4.60;;;4.00;;
57889;SDS011;43707;50.184;18.966;2023-06-22T06:36:55;4.00;;;3.70;;
57889;SDS011;43707;50.184;18.966;2023-06-22T06:39:20;12.20;;;4.80;;
57889;SDS011;43707;50.184;18.966;2023-06-22T06:41:46;9.70;;;2.90;;
57889;SDS011;43707;50.184;18.966;2023-06-22T06:44:12;6.40;;;5.40;;
57889;SDS011;43707;50.184;18.966;2023-06-22T06:46:37;4.90;;;4.10;;
57889;SDS011;43707;50.184;18.966;2023-06-22T06:49:03;5.60;;;4.50;;
57889;SDS011;43707;50.184;18.966;2023-06-22T06:51:28;5.10;;;4.70;;
57889;SDS011;43707;50.184;18.966;2023-06-22T06:53:54;4.50;;;3.30;;
57889;SDS011;43707;50.184;18.966;2023-06-22T06:56:19;4.60;;;3.70;;
57889;SDS011;43707;50.184;18.966;2023-06-22T06:58:45;6.60;;;4.60;;
57889;SDS011;43707;50.184;18.966;2023-06-22T07:01:11;5.20;;;4.00;;
57889;SDS011;43707;50.184;18.966;2023-06-22T07:03:39;4.10;;;3.60;;
57889;SDS011;43707;50.184;18.966;2023-06-22T07:06:05;5.20;;;4.50;;
57889;SDS011;43707;50.184;18.966;2023-06-22T07:08:30;5.20;;;4.80;;
57889;SDS011;43707;50.184;18.966;2023-06-22T07:10:56;8.00;;;6.10;;
57889;SDS011;43707;50.184;18.966;2023-06-22T07:13:21;8.70;;;7.80;;
57889;SDS011;43707;50.184;18.966;2023-06-22T07:15:47;5.60;;;4.70;;
57889;SDS011;43707;50.184;18.966;2023-06-22T07:18:12;8.50;;;7.70;;
57889;SDS011;43707;50.184;18.966;2023-06-22T07:20:37;7.70;;;7.00;;
57889;SDS011;43707;50.184;18.966;2023-06-22T07:23:04;10.60;;;7.30;;
57889;SDS011;43707;50.184;18.966;2023-06-22T07:25:30;8.00;;;7.30;;
57889;SDS011;43707;50.184;18.966;2023-06-22T07:28:06;14.40;;;12.80;;
57889;SDS011;43707;50.184;18.966;2023-06-22T07:30:32;8.70;;;7.90;;
57889;SDS011;43707;50.184;18.966;2023-06-22T07:32:58;7.70;;;7.00;;
57889;SDS011;43707;50.184;18.966;2023-06-22T07:35:28;6.50;;;5.80;;
57889;SDS011;43707;50.184;18.966;2023-06-22T07:37:54;6.00;;;5.50;;
57889;SDS011;43707;50.184;18.966;2023-06-22T07:40:19;4.50;;;4.20;;
57889;SDS011;43707;50.184;18.966;2023-06-22T07:42:44;4.20;;;3.80;;
57889;SDS011;43707;50.184;18.966;2023-06-22T07:45:13;4.60;;;4.20;;
57889;SDS011;43707;50.184;18.966;2023-06-22T07:47:39;4.60;;;3.60;;
57889;SDS011;43707;50.184;18.966;2023-06-22T07:50:04;5.00;;;2.40;;
57889;SDS011;43707;50.184;18.966;2023-06-22T07:52:30;2.50;;;2.30;;
57889;SDS011;43707;50.184;18.966;2023-06-22T07:54:56;4.90;;;4.40;;
57889;SDS011;43707;50.184;18.966;2023-06-22T07:57:22;3.60;;;3.30;;
57889;SDS011;43707;50.184;18.966;2023-06-22T07:59:47;3.70;;;3.40;;
57889;SDS011;43707;50.184;18.966;2023-06-22T08:02:12;4.00;;;3.20;;
57889;SDS011;43707;50.184;18.966;2023-06-22T08:04:38;3.20;;;3.00;;
57889;SDS011;43707;50.184;18.966;2023-06-22T08:07:04;6.90;;;2.70;;
57889;SDS011;43707;50.184;18.966;2023-06-22T08:09:30;3.10;;;2.90;;
57889;SDS011;43707;50.184;18.966;2023-06-22T08:11:57;3.20;;;2.90;;
57889;SDS011;43707;50.184;18.966;2023-06-22T08:14:23;3.20;;;2.80;;
57889;SDS011;43707;50.184;18.966;2023-06-22T08:16:50;1.80;;;1.70;;
57889;SDS011;43707;50.184;18.966;2023-06-22T08:19:15;3.10;;;2.10;;
57889;SDS011;43707;50.184;18.966;2023-06-22T08:21:42;2.70;;;2.50;;
57889;SDS011;43707;50.184;18.966;2023-06-22T08:24:08;2.00;;;1.90;;
57889;SDS011;43707;50.184;18.966;2023-06-22T08:26:33;1.60;;;1.50;;
57889;SDS011;43707;50.184;18.966;2023-06-22T08:29:04;1.90;;;1.80;;
57889;SDS011;43707;50.184;18.966;2023-06-22T08:31:30;2.80;;;1.60;;
57889;SDS011;43707;50.184;18.966;2023-06-22T08:33:58;1.70;;;1.60;;
57889;SDS011;43707;50.184;18.966;2023-06-22T08:36:23;2.70;;;1.70;;
57889;SDS011;43707;50.184;18.966;2023-06-22T08:38:49;1.50;;;1.40;;
57889;SDS011;43707;50.184;18.966;2023-06-22T08:41:16;1.50;;;1.40;;
57889;SDS011;43707;50.184;18.966;2023-06-22T08:43:43;3.00;;;1.80;;
57889;SDS011;43707;50.184;18.966;2023-06-22T08:46:09;1.90;;;1.80;;
57889;SDS011;43707;50.184;18.966;2023-06-22T08:48:36;2.20;;;2.00;;
57889;SDS011;43707;50.184;18.966;2023-06-22T08:51:01;2.80;;;2.50;;
57889;SDS011;43707;50.184;18.966;2023-06-22T08:53:28;1.90;;;1.40;;
57889;SDS011;43707;50.184;18.966;2023-06-22T08:55:53;2.80;;;1.50;;
57889;SDS011;43707;50.184;18.966;2023-06-22T08:58:19;1.80;;;1.60;;
57889;SDS011;43707;50.184;18.966;2023-06-22T09:00:46;1.50;;;1.40;;
57889;SDS011;43707;50.184;18.966;2023-06-22T09:03:12;2.20;;;1.50;;
57889;SDS011;43707;50.184;18.966;2023-06-22T09:05:37;2.00;;;1.70;;
57889;SDS011;43707;50.184;18.966;2023-06-22T09:08:03;1.50;;;1.40;;
57889;SDS011;43707;50.184;18.966;2023-06-22T09:10:29;3.50;;;1.70;;
57889;SDS011;43707;50.184;18.966;2023-06-22T09:12:54;1.60;;;1.50;;
57889;SDS011;43707;50.184;18.966;2023-06-22T09:15:19;1.60;;;1.50;;
57889;SDS011;43707;50.184;18.966;2023-06-22T09:17:45;1.40;;;1.30;;
57889;SDS011;43707;50.184;18.966;2023-06-22T09:20:11;1.60;;;1.50;;
57889;SDS011;43707;50.184;18.966;2023-06-22T09:22:37;2.00;;;1.90;;
57889;SDS011;43707;50.184;18.966;2023-06-22T09:25:03;1.70;;;1.40;;
57889;SDS011;43707;50.184;18.966;2023-06-22T09:27:29;1.30;;;1.20;;
57889;SDS011;43707;50.184;18.966;2023-06-22T09:29:55;1.80;;;1.70;;
57889;SDS011;43707;50.184;18.966;2023-06-22T09:32:20;1.50;;;1.40;;
57889;SDS011;43707;50.184;18.966;2023-06-22T09:34:46;1.80;;;1.60;;
57889;SDS011;43707;50.184;18.966;2023-06-22T09:37:11;2.00;;;1.80;;
57889;SDS011;43707;50.184;18.966;2023-06-22T09:39:37;2.70;;;2.50;;
57889;SDS011;43707;50.184;18.966;2023-06-22T09:42:02;1.60;;;1.50;;
57889;SDS011;43707;50.184;18.966;2023-06-22T09:44:28;1.90;;;1.80;;
57889;SDS011;43707;50.184;18.966;2023-06-22T09:46:53;2.30;;;2.10;;
57889;SDS011;43707;50.184;18.966;2023-06-22T09:49:19;3.30;;;2.20;;
57889;SDS011;43707;50.184;18.966;2023-06-22T09:51:44;3.30;;;2.60;;
57889;SDS011;43707;50.184;18.966;2023-06-22T09:54:09;2.70;;;2.50;;
57889;SDS011;43707;50.184;18.966;2023-06-22T09:56:35;3.10;;;2.80;;
57889;SDS011;43707;50.184;18.966;2023-06-22T09:59:02;2.80;;;2.50;;
57889;SDS011;43707;50.184;18.966;2023-06-22T10:01:28;2.80;;;2.60;;
57889;SDS011;43707;50.184;18.966;2023-06-22T10:03:53;3.30;;;3.00;;
57889;SDS011;43707;50.184;18.966;2023-06-22T10:06:21;2.80;;;2.60;;
57889;SDS011;43707;50.184;18.966;2023-06-22T10:08:47;3.20;;;3.00;;
57889;SDS011;43707;50.184;18.966;2023-06-22T10:11:13;7.80;;;3.00;;
57889;SDS011;43707;50.184;18.966;2023-06-22T10:13:39;2.70;;;2.50;;
57889;SDS011;43707;50.184;18.966;2023-06-22T10:16:04;2.40;;;2.20;;
57889;SDS011;43707;50.184;18.966;2023-06-22T10:18:30;1.90;;;1.80;;
57889;SDS011;43707;50.184;18.966;2023-06-22T10:20:55;1.50;;;1.40;;
57889;SDS011;43707;50.184;18.966;2023-06-22T10:23:21;1.50;;;1.40;;
57889;SDS011;43707;50.184;18.966;2023-06-22T10:25:47;0.90;;;0.90;;
57889;SDS011;43707;50.184;18.966;2023-06-22T10:28:13;1.10;;;1.00;;
57889;SDS011;43707;50.184;18.966;2023-06-22T10:30:39;1.00;;;1.00;;
57889;SDS011;43707;50.184;18.966;2023-06-22T10:33:06;0.80;;;0.70;;
57889;SDS011;43707;50.184;18.966;2023-06-22T10:35:33;0.80;;;0.80;;
57889;SDS011;43707;50.184;18.966;2023-06-22T10:37:58;0.70;;;0.70;;
57889;SDS011;43707;50.184;18.966;2023-06-22T10:40:24;0.60;;;0.60;;
57889;SDS011;43707;50.184;18.966;2023-06-22T10:42:50;0.90;;;0.70;;
57889;SDS011;43707;50.184;18.966;2023-06-22T10:45:15;0.50;;;0.50;;
57889;SDS011;43707;50.184;18.966;2023-06-22T10:47:41;0.50;;;0.50;;
57889;SDS011;43707;50.184;18.966;2023-06-22T10:50:07;0.40;;;0.40;;
57889;SDS011;43707;50.184;18.966;2023-06-22T10:52:33;0.60;;;0.60;;
57889;SDS011;43707;50.184;18.966;2023-06-22T10:54:58;0.50;;;0.50;;
57889;SDS011;43707;50.184;18.966;2023-06-22T10:57:24;0.60;;;0.60;;
57889;SDS011;43707;50.184;18.966;2023-06-22T10:59:49;0.30;;;0.30;;
57889;SDS011;43707;50.184;18.966;2023-06-22T11:02:15;0.40;;;0.40;;
57889;SDS011;43707;50.184;18.966;2023-06-22T11:04:40;0.50;;;0.50;;
57889;SDS011;43707;50.184;18.966;2023-06-22T11:07:06;0.50;;;0.50;;
57889;SDS011;43707;50.184;18.966;2023-06-22T11:09:31;0.60;;;0.60;;
57889;SDS011;43707;50.184;18.966;2023-06-22T11:11:57;1.30;;;0.90;;
57889;SDS011;43707;50.184;18.966;2023-06-22T11:14:24;0.80;;;0.70;;
57889;SDS011;43707;50.184;18.966;2023-06-22T11:16:50;0.80;;;0.80;;
57889;SDS011;43707;50.184;18.966;2023-06-22T11:19:15;0.80;;;0.80;;
57889;SDS011;43707;50.184;18.966;2023-06-22T11:21:41;0.80;;;0.70;;
57889;SDS011;43707;50.184;18.966;2023-06-22T11:24:06;0.70;;;0.70;;
57889;SDS011;43707;50.184;18.966;2023-06-22T11:26:32;7.90;;;1.00;;
57889;SDS011;43707;50.184;18.966;2023-06-22T11:28:58;0.70;;;0.70;;
57889;SDS011;43707;50.184;18.966;2023-06-22T11:31:23;0.90;;;0.70;;
57889;SDS011;43707;50.184;18.966;2023-06-22T11:33:49;0.70;;;0.70;;
57889;SDS011;43707;50.184;18.966;2023-06-22T11:36:14;0.60;;;0.50;;
57889;SDS011;43707;50.184;18.966;2023-06-22T11:38:40;0.60;;;0.60;;
57889;SDS011;43707;50.184;18.966;2023-06-22T11:41:06;0.50;;;0.50;;
57889;SDS011;43707;50.184;18.966;2023-06-22T11:43:32;0.50;;;0.50;;
57889;SDS011;43707;50.184;18.966;2023-06-22T11:45:59;0.40;;;0.40;;
57889;SDS011;43707;50.184;18.966;2023-06-22T11:48:24;0.40;;;0.40;;
57889;SDS011;43707;50.184;18.966;2023-06-22T11:50:50;0.50;;;0.50;;
57889;SDS011;43707;50.184;18.966;2023-06-22T11:53:16;0.40;;;0.40;;
57889;SDS011;43707;50.184;18.966;2023-06-22T11:55:43;0.40;;;0.40;;
57889;SDS011;43707;50.184;18.966;2023-06-22T11:58:09;0.50;;;0.40;;
57889;SDS011;43707;50.184;18.966;2023-06-22T12:00:34;0.80;;;0.50;;
57889;SDS011;43707;50.184;18.966;2023-06-22T12:03:00;0.50;;;0.50;;
57889;SDS011;43707;50.184;18.966;2023-06-22T12:05:25;0.70;;;0.40;;
57889;SDS011;43707;50.184;18.966;2023-06-22T12:07:53;0.50;;;0.50;;
57889;SDS011;43707;50.184;18.966;2023-06-22T12:10:19;0.50;;;0.50;;
57889;SDS011;43707;50.184;18.966;2023-06-22T12:12:44;0.50;;;0.50;;
57889;SDS011;43707;50.184;18.966;2023-06-22T12:15:10;0.70;;;0.70;;
57889;SDS011;43707;50.184;18.966;2023-06-22T12:17:35;0.80;;;0.50;;
57889;SDS011;43707;50.184;18.966;2023-06-22T12:20:01;0.60;;;0.60;;
57889;SDS011;43707;50.184;18.966;2023-06-22T12:22:30;0.40;;;0.40;;
57889;SDS011;43707;50.184;18.966;2023-06-22T12:24:57;0.70;;;0.70;;
57889;SDS011;43707;50.184;18.966;2023-06-22T12:27:22;0.60;;;0.60;;
57889;SDS011;43707;50.184;18.966;2023-06-22T12:29:48;1.00;;;0.80;;
57889;SDS011;43707;50.184;18.966;2023-06-22T12:32:13;0.50;;;0.50;;
57889;SDS011;43707;50.184;18.966;2023-06-22T12:34:39;0.40;;;0.40;;
57889;SDS011;43707;50.184;18.966;2023-06-22T12:37:06;0.50;;;0.50;;
57889;SDS011;43707;50.184;18.966;2023-06-22T12:39:32;0.40;;;0.40;;
57889;SDS011;43707;50.184;18.966;2023-06-22T12:41:57;0.60;;;0.60;;
57889;SDS011;43707;50.184;18.966;2023-06-22T12:44:23;2.00;;;0.60;;
57889;SDS011;43707;50.184;18.966;2023-06-22T12:46:48;0.70;;;0.50;;
57889;SDS011;43707;50.184;18.966;2023-06-22T12:49:14;0.60;;;0.60;;
57889;SDS011;43707;50.184;18.966;2023-06-22T12:51:40;0.50;;;0.50;;
57889;SDS011;43707;50.184;18.966;2023-06-22T12:54:09;0.80;;;0.80;;
57889;SDS011;43707;50.184;18.966;2023-06-22T12:56:35;0.50;;;0.50;;
57889;SDS011;43707;50.184;18.966;2023-06-22T12:59:01;0.70;;;0.60;;
57889;SDS011;43707;50.184;18.966;2023-06-22T13:01:27;0.60;;;0.60;;
57889;SDS011;43707;50.184;18.966;2023-06-22T13:03:53;0.90;;;0.90;;
57889;SDS011;43707;50.184;18.966;2023-06-22T13:06:19;1.10;;;1.00;;
57889;SDS011;43707;50.184;18.966;2023-06-22T13:08:44;2.20;;;0.90;;
57889;SDS011;43707;50.184;18.966;2023-06-22T13:11:10;0.80;;;0.80;;
57889;SDS011;43707;50.184;18.966;2023-06-22T13:13:35;0.60;;;0.60;;
57889;SDS011;43707;50.184;18.966;2023-06-22T13:16:01;0.70;;;0.70;;
57889;SDS011;43707;50.184;18.966;2023-06-22T13:18:26;0.80;;;0.70;;
57889;SDS011;43707;50.184;18.966;2023-06-22T13:20:52;0.70;;;0.70;;
57889;SDS011;43707;50.184;18.966;2023-06-22T13:23:19;1.90;;;0.60;;
57889;SDS011;43707;50.184;18.966;2023-06-22T13:25:46;0.60;;;0.60;;
57889;SDS011;43707;50.184;18.966;2023-06-22T13:28:11;0.70;;;0.70;;
57889;SDS011;43707;50.184;18.966;2023-06-22T13:30:38;1.60;;;0.50;;
57889;SDS011;43707;50.184;18.966;2023-06-22T13:33:05;0.50;;;0.50;;
57889;SDS011;43707;50.184;18.966;2023-06-22T13:35:30;1.10;;;0.50;;
57889;SDS011;43707;50.184;18.966;2023-06-22T13:37:56;0.60;;;0.50;;
57889;SDS011;43707;50.184;18.966;2023-06-22T13:40:21;0.60;;;0.50;;
57889;SDS011;43707;50.184;18.966;2023-06-22T13:42:47;0.40;;;0.40;;
57889;SDS011;43707;50.184;18.966;2023-06-22T13:45:12;0.60;;;0.60;;
57889;SDS011;43707;50.184;18.966;2023-06-22T13:47:38;0.60;;;0.60;;
57889;SDS011;43707;50.184;18.966;2023-06-22T13:50:03;0.60;;;0.60;;
57889;SDS011;43707;50.184;18.966;2023-06-22T13:52:29;0.80;;;0.60;;
57889;SDS011;43707;50.184;18.966;2023-06-22T13:54:54;6.40;;;1.00;;
57889;SDS011;43707;50.184;18.966;2023-06-22T13:57:20;1.30;;;0.80;;
57889;SDS011;43707;50.184;18.966;2023-06-22T13:59:45;1.90;;;0.90;;
57889;SDS011;43707;50.184;18.966;2023-06-22T14:02:12;0.70;;;0.70;;
57889;SDS011;43707;50.184;18.966;2023-06-22T14:04:37;1.40;;;0.80;;
57889;SDS011;43707;50.184;18.966;2023-06-22T14:07:03;1.10;;;1.00;;
57889;SDS011;43707;50.184;18.966;2023-06-22T14:09:28;1.60;;;1.20;;
57889;SDS011;43707;50.184;18.966;2023-06-22T14:11:54;1.40;;;1.20;;
57889;SDS011;43707;50.184;18.966;2023-06-22T14:14:20;1.20;;;1.00;;
57889;SDS011;43707;50.184;18.966;2023-06-22T14:16:46;1.20;;;1.00;;
57889;SDS011;43707;50.184;18.966;2023-06-22T14:19:12;1.80;;;1.20;;
57889;SDS011;43707;50.184;18.966;2023-06-22T14:21:38;1.30;;;1.20;;
57889;SDS011;43707;50.184;18.966;2023-06-22T14:24:04;1.40;;;1.20;;
57889;SDS011;43707;50.184;18.966;2023-06-22T14:26:30;1.20;;;1.10;;
57889;SDS011;43707;50.184;18.966;2023-06-22T14:29:02;1.30;;;1.20;;
57889;SDS011;43707;50.184;18.966;2023-06-22T14:31:27;1.50;;;1.10;;
57889;SDS011;43707;50.184;18.966;2023-06-22T14:33:52;1.00;;;0.90;;
57889;SDS011;43707;50.184;18.966;2023-06-22T14:36:18;1.00;;;0.80;;
57889;SDS011;43707;50.184;18.966;2023-06-22T14:38:44;1.10;;;0.70;;